createdAt,value
2022-12-18T00:02:04.812Z,29.80
2022-12-18T00:04:22.631Z,29.10
2022-12-18T00:06:36.305Z,26.60
2022-12-18T00:08:49.143Z,28.20
2022-12-18T00:11:08.926Z,24.20
2022-12-18T00:13:20.818Z,24.50
2022-12-18T00:15:35.475Z,25.30
2022-12-18T00:17:47.569Z,24.00
2022-12-18T00:19:59.258Z,24.20
2022-12-18T00:22:11.146Z,29.00
2022-12-18T00:24:23.141Z,25.80
2022-12-18T00:26:37.187Z,27.90
2022-12-18T00:28:49.587Z,28.20
2022-12-18T00:31:02.808Z,26.40
2022-12-18T00:33:14.909Z,27.70
2022-12-18T00:35:26.701Z,27.80
2022-12-18T00:37:38.794Z,27.70
2022-12-18T00:39:52.939Z,31.60
2022-12-18T00:42:24.293Z,32.10
2022-12-18T00:44:37.828Z,24.60
2022-12-18T00:46:50.739Z,34.40
2022-12-18T00:49:03.861Z,31.00
2022-12-18T00:51:16.057Z,28.60
2022-12-18T00:53:27.845Z,27.00
2022-12-18T00:55:42.707Z,27.50
2022-12-18T00:57:54.498Z,29.20
2022-12-18T01:00:08.434Z,28.80
2022-12-18T01:02:20.704Z,31.10
2022-12-18T01:04:33.710Z,31.40
2022-12-18T01:06:45.753Z,29.60
2022-12-18T01:08:57.645Z,32.00
2022-12-18T01:11:14.249Z,28.90
2022-12-18T01:13:26.756Z,31.50
2022-12-18T01:15:38.752Z,26.20
2022-12-18T01:17:53.611Z,26.50
2022-12-18T01:20:06.733Z,25.00
2022-12-18T01:22:18.425Z,25.60
2022-12-18T01:24:30.824Z,28.00
2022-12-18T01:26:42.865Z,27.00
2022-12-18T01:28:56.247Z,26.30
2022-12-18T01:31:20.443Z,28.50
2022-12-18T01:33:32.525Z,29.30
2022-12-18T01:35:45.136Z,27.90
2022-12-18T01:37:57.546Z,30.60
2022-12-18T01:40:09.954Z,27.60
2022-12-18T01:42:22.348Z,27.40
2022-12-18T01:44:56.872Z,30.00
2022-12-18T01:47:08.762Z,27.40
2022-12-18T01:49:20.654Z,30.60
2022-12-18T01:51:32.546Z,29.70
2022-12-18T01:53:46.282Z,29.90
2022-12-18T01:55:59.916Z,32.20
2022-12-18T01:58:12.423Z,30.20
2022-12-18T02:00:25.029Z,29.60
2022-12-18T02:02:37.197Z,32.70
2022-12-18T02:04:49.691Z,34.90
2022-12-18T02:07:27.435Z,34.10
2022-12-18T02:10:15.372Z,31.80
2022-12-18T02:17:33.340Z,25.20
2022-12-18T02:19:54.304Z,30.60
2022-12-18T02:22:38.700Z,31.90
2022-12-18T02:25:01.243Z,30.70
2022-12-18T02:27:14.405Z,33.80
2022-12-18T02:29:37.108Z,33.70
2022-12-18T02:32:00.469Z,29.90
2022-12-18T02:34:14.723Z,32.70
2022-12-18T02:36:29.974Z,30.40
2022-12-18T02:38:45.670Z,31.50
2022-12-18T02:40:59.550Z,28.90
2022-12-18T02:43:15.289Z,29.50
2022-12-18T02:45:27.342Z,29.20
2022-12-18T02:47:44.913Z,32.10
2022-12-18T02:52:25.594Z,30.10
2022-12-18T02:54:48.783Z,21.00
2022-12-18T02:57:16.207Z,27.40
2022-12-18T02:59:50.524Z,24.50
2022-12-18T03:02:15.360Z,24.10
2022-12-18T03:04:50.742Z,24.20
2022-12-18T03:07:09.000Z,25.50
2022-12-18T03:09:28.986Z,20.40
2022-12-18T03:12:03.718Z,19.60
2022-12-18T03:14:21.125Z,28.20
2022-12-18T03:16:36.041Z,24.60
2022-12-18T03:18:55.060Z,25.90
2022-12-18T03:23:37.417Z,20.00
2022-12-18T03:28:07.103Z,20.40
2022-12-18T03:30:19.662Z,25.00
2022-12-18T03:32:37.235Z,27.40
2022-12-18T03:34:53.009Z,29.00
2022-12-18T03:37:07.267Z,23.30
2022-12-18T03:39:21.002Z,27.10
2022-12-18T03:42:00.544Z,28.80
2022-12-18T03:44:31.481Z,25.30
2022-12-18T03:46:56.073Z,29.20
2022-12-18T03:49:24.042Z,28.70
2022-12-18T03:51:44.860Z,26.40
2022-12-18T03:54:03.688Z,24.40
2022-12-18T03:56:18.969Z,26.10
2022-12-18T03:58:34.548Z,28.50
2022-12-18T04:01:02.322Z,21.90
2022-12-18T04:03:15.894Z,23.90
2022-12-18T04:05:34.937Z,25.80
2022-12-18T04:07:49.659Z,29.00
2022-12-18T04:10:04.369Z,27.80
2022-12-18T04:12:16.518Z,27.80
2022-12-18T04:14:29.537Z,24.90
2022-12-18T04:16:41.641Z,26.30
2022-12-18T04:18:55.677Z,25.20
2022-12-18T04:21:09.415Z,25.60
2022-12-18T04:23:22.329Z,22.80
2022-12-18T04:25:35.142Z,25.60
2022-12-18T04:27:56.355Z,27.70
2022-12-18T04:30:09.276Z,24.30
2022-12-18T04:32:21.469Z,25.70
2022-12-18T04:34:33.978Z,27.70
2022-12-18T04:36:45.662Z,25.80
2022-12-18T04:38:58.785Z,26.90
2022-12-18T04:41:11.086Z,26.40
2022-12-18T04:43:25.888Z,26.20
2022-12-18T04:45:37.842Z,26.90
2022-12-18T04:47:49.733Z,25.30
2022-12-18T04:50:01.728Z,25.20
2022-12-18T04:52:13.518Z,25.50
2022-12-18T04:54:25.102Z,24.30
2022-12-18T04:56:37.097Z,27.80
2022-12-18T04:58:49.060Z,28.70
2022-12-18T05:01:01.189Z,27.50
2022-12-18T05:03:13.128Z,25.50
2022-12-18T05:05:25.179Z,25.30
2022-12-18T05:07:37.685Z,26.20
2022-12-18T05:09:49.374Z,24.10
2022-12-18T05:12:01.572Z,23.90
2022-12-18T05:14:13.670Z,26.10
2022-12-18T05:16:25.537Z,26.00
2022-12-18T05:18:37.765Z,26.90
2022-12-18T05:20:51.117Z,21.90
2022-12-18T05:23:02.875Z,24.70
2022-12-18T05:25:14.669Z,24.10
2022-12-18T05:27:26.456Z,25.30
2022-12-18T05:29:38.962Z,26.30
2022-12-18T05:31:51.109Z,19.00
2022-12-18T05:34:03.574Z,24.30
2022-12-18T05:36:15.870Z,26.40
2022-12-18T05:38:30.045Z,26.10
2022-12-18T05:40:44.610Z,26.80
2022-12-18T05:42:56.359Z,26.70
2022-12-18T05:45:09.070Z,25.90
2022-12-18T05:47:21.372Z,23.40
2022-12-18T05:49:32.956Z,23.90
2022-12-18T05:51:44.848Z,25.00
2022-12-18T05:53:56.617Z,24.80
2022-12-18T05:56:11.440Z,26.40
2022-12-18T05:58:23.123Z,25.50
2022-12-18T06:00:37.180Z,23.60
2022-12-18T06:02:49.080Z,25.50
2022-12-18T06:05:01.430Z,22.90
2022-12-18T06:07:13.214Z,22.20
2022-12-18T06:09:24.801Z,20.70
2022-12-18T06:11:37.920Z,20.90
2022-12-18T06:13:58.287Z,23.10
2022-12-18T06:16:11.697Z,26.00
2022-12-18T06:18:23.636Z,24.30
2022-12-18T06:20:37.678Z,21.90
2022-12-18T06:22:49.268Z,25.60
2022-12-18T06:25:02.074Z,20.30
2022-12-18T06:27:14.683Z,26.40
2022-12-18T06:29:26.272Z,44.20
2022-12-18T06:31:38.643Z,61.00
2022-12-18T06:33:50.363Z,35.20
2022-12-18T06:36:13.618Z,28.00
2022-12-18T06:38:25.616Z,24.30
2022-12-18T06:40:39.678Z,23.80
2022-12-18T06:42:51.550Z,24.40
2022-12-18T06:45:03.793Z,23.30
2022-12-18T06:47:15.640Z,25.30
2022-12-18T06:49:30.471Z,27.10
2022-12-18T06:51:43.008Z,26.10
2022-12-18T06:53:54.911Z,26.40
2022-12-18T06:56:10.643Z,25.50
2022-12-18T06:58:22.626Z,23.90
2022-12-18T07:00:34.207Z,25.10
2022-12-18T07:02:46.127Z,24.70
2022-12-18T07:04:58.079Z,27.30
2022-12-18T07:07:10.145Z,27.50
2022-12-18T07:09:21.939Z,26.70
2022-12-18T07:11:34.752Z,24.90
2022-12-18T07:13:47.054Z,22.40
2022-12-18T07:16:10.901Z,29.80
2022-12-18T07:18:27.323Z,30.50
2022-12-18T07:20:39.112Z,27.80
2022-12-18T07:22:56.043Z,29.20
2022-12-18T07:25:08.633Z,28.50
2022-12-18T07:27:20.422Z,26.30
2022-12-18T07:29:32.008Z,34.50
2022-12-18T07:31:44.060Z,46.40
2022-12-18T07:33:56.406Z,37.70
2022-12-18T07:36:10.576Z,33.00
2022-12-18T07:38:23.263Z,37.70
2022-12-18T07:40:35.084Z,32.90
2022-12-18T07:42:46.947Z,32.70
2022-12-18T07:45:03.052Z,37.30
2022-12-18T07:47:15.031Z,30.80
2022-12-18T07:49:26.822Z,27.60
2022-12-18T07:51:38.506Z,28.60
2022-12-18T07:53:52.454Z,31.20
2022-12-18T07:58:40.297Z,28.10
2022-12-18T08:00:53.382Z,29.00
2022-12-18T08:03:05.468Z,30.90
2022-12-18T08:05:18.532Z,24.90
2022-12-18T08:07:30.528Z,30.50
2022-12-18T08:09:43.241Z,25.80
2022-12-18T08:11:55.337Z,24.80
2022-12-18T08:14:07.024Z,32.50
2022-12-18T08:16:19.399Z,34.10
2022-12-18T08:18:36.953Z,34.30
2022-12-18T08:20:49.050Z,38.20
2022-12-18T08:23:00.840Z,42.40
2022-12-18T08:25:12.631Z,77.30
2022-12-18T08:27:31.462Z,56.70
2022-12-18T08:29:43.480Z,36.60
2022-12-18T08:31:55.495Z,30.20
2022-12-18T08:34:07.367Z,29.50
2022-12-18T08:36:20.282Z,30.80
2022-12-18T08:38:33.711Z,27.60
2022-12-18T08:40:45.398Z,26.90
2022-12-18T08:43:15.927Z,32.80
2022-12-18T08:45:28.538Z,34.80
2022-12-18T08:47:40.227Z,25.70
2022-12-18T08:49:51.914Z,27.80
2022-12-18T08:52:04.119Z,33.80
2022-12-18T08:54:16.209Z,28.20
2022-12-18T08:56:28.102Z,28.50
2022-12-18T08:58:40.035Z,27.40
2022-12-18T09:00:51.753Z,24.70
2022-12-18T09:03:04.085Z,22.70
2022-12-18T09:05:16.393Z,23.50
2022-12-18T09:07:28.076Z,25.20
2022-12-18T09:09:39.942Z,28.10
2022-12-18T09:11:51.656Z,24.30
2022-12-18T09:14:03.752Z,24.60
2022-12-18T09:16:17.118Z,23.10
2022-12-18T09:18:29.276Z,25.70
2022-12-18T09:20:41.577Z,24.70
2022-12-18T09:22:53.472Z,20.60
2022-12-18T09:25:08.538Z,29.60
2022-12-18T09:27:20.432Z,23.90
2022-12-18T09:29:33.244Z,29.10
2022-12-18T09:31:45.054Z,25.00
2022-12-18T09:33:57.851Z,32.90
2022-12-18T09:36:12.401Z,32.20
2022-12-18T09:38:24.498Z,27.90
2022-12-18T09:40:42.948Z,27.50
2022-12-18T09:45:16.333Z,36.00
2022-12-18T09:47:39.502Z,46.90
2022-12-18T09:49:59.185Z,59.90
2022-12-18T09:52:17.429Z,47.80
2022-12-18T09:56:46.433Z,50.20
2022-12-18T09:59:03.035Z,75.90
2022-12-18T10:01:28.982Z,57.00
2022-12-18T10:03:48.514Z,63.20
2022-12-18T10:06:24.896Z,44.40
2022-12-18T10:08:55.739Z,37.40
2022-12-18T10:11:29.333Z,46.90
2022-12-18T10:13:59.248Z,51.00
2022-12-18T10:16:44.627Z,30.80
2022-12-18T10:19:19.046Z,25.60
2022-12-18T10:22:01.454Z,24.70
2022-12-18T10:24:31.266Z,32.90
2022-12-18T10:26:45.221Z,36.90
2022-12-18T10:29:03.691Z,30.70
2022-12-18T10:31:20.239Z,42.70
2022-12-18T10:33:34.095Z,37.60
2022-12-18T10:35:48.135Z,34.50
2022-12-18T10:38:21.737Z,37.40
2022-12-18T10:40:48.685Z,38.60
2022-12-18T10:43:13.475Z,44.20
2022-12-18T10:45:25.061Z,32.30
2022-12-18T10:47:37.979Z,32.50
2022-12-18T10:49:53.975Z,29.40
2022-12-18T10:52:17.227Z,38.50
2022-12-18T10:54:36.247Z,34.30
2022-12-18T10:56:48.384Z,33.60
2022-12-18T10:59:05.130Z,33.90
2022-12-18T11:01:22.554Z,51.00
2022-12-18T11:03:40.119Z,39.10
2022-12-18T11:06:03.922Z,108.20
2022-12-18T11:08:24.440Z,433.50
2022-12-18T11:10:41.872Z,220.40
2022-12-18T11:12:53.931Z,181.10
2022-12-18T11:15:06.705Z,119.10
2022-12-18T11:17:27.049Z,141.00
2022-12-18T11:19:42.097Z,142.70
2022-12-18T11:21:53.821Z,105.50
2022-12-18T11:24:10.073Z,121.70
2022-12-18T11:26:22.919Z,87.80
2022-12-18T11:28:43.319Z,277.80
2022-12-18T11:31:35.289Z,144.80
2022-12-18T11:34:28.750Z,149.60
2022-12-18T11:36:47.536Z,69.50
2022-12-18T11:39:07.136Z,47.90
2022-12-18T11:41:48.999Z,45.20
2022-12-18T11:44:03.757Z,70.20
2022-12-18T11:46:26.340Z,49.70
2022-12-18T11:48:44.849Z,60.00
2022-12-18T11:50:59.814Z,32.40
2022-12-18T11:53:13.203Z,32.40
2022-12-18T11:55:41.110Z,34.90
2022-12-18T11:58:07.851Z,100.70
2022-12-18T12:00:31.897Z,139.70
2022-12-18T12:03:05.100Z,118.00
2022-12-18T12:05:34.834Z,97.70
2022-12-18T12:08:19.798Z,53.00
2022-12-18T12:10:54.017Z,54.60
2022-12-18T12:13:19.933Z,50.30
2022-12-18T12:15:43.090Z,51.30
2022-12-18T12:18:18.278Z,45.90
2022-12-18T12:20:59.204Z,52.30
2022-12-18T12:23:48.596Z,46.50
2022-12-18T12:26:07.845Z,36.30
2022-12-18T12:28:39.218Z,41.20
2022-12-18T12:31:21.626Z,105.90
2022-12-18T12:33:45.672Z,189.20
2022-12-18T12:36:04.426Z,136.60
2022-12-18T12:38:25.469Z,88.60
2022-12-18T12:41:00.485Z,81.60
2022-12-18T12:43:35.053Z,64.80
2022-12-18T12:46:01.435Z,48.90
2022-12-18T12:48:37.152Z,40.70
2022-12-18T12:50:51.281Z,39.70
2022-12-18T12:53:09.132Z,35.20
2022-12-18T12:55:25.379Z,37.50
2022-12-18T12:57:54.028Z,37.50
2022-12-18T13:00:18.124Z,36.90
2022-12-18T13:02:43.416Z,36.00
2022-12-18T13:05:21.684Z,35.20
2022-12-18T13:10:26.805Z,37.70
2022-12-18T13:13:01.127Z,36.60
2022-12-18T13:15:23.136Z,34.20
2022-12-18T13:17:35.951Z,31.60
2022-12-18T13:20:08.299Z,38.50
2022-12-18T13:22:29.354Z,47.20
2022-12-18T13:24:42.244Z,33.70
2022-12-18T13:26:55.679Z,29.70
2022-12-18T13:29:07.963Z,31.20
2022-12-18T13:31:42.285Z,35.30
2022-12-18T13:34:27.892Z,35.40
2022-12-18T13:36:42.025Z,42.10
2022-12-18T13:39:19.768Z,38.70
2022-12-18T13:41:36.531Z,58.90
2022-12-18T13:43:53.699Z,59.20
2022-12-18T13:48:39.370Z,48.10
2022-12-18T13:51:08.024Z,54.60
2022-12-18T13:53:32.309Z,126.80
2022-12-18T13:55:46.592Z,88.40
2022-12-18T13:58:06.971Z,99.70
2022-12-18T14:00:20.076Z,49.10
2022-12-18T14:02:34.275Z,34.60
2022-12-18T14:04:48.326Z,30.90
2022-12-18T14:07:07.161Z,36.90
2022-12-18T14:09:28.248Z,32.10
2022-12-18T14:11:47.030Z,26.90
2022-12-18T14:14:02.983Z,30.00
2022-12-18T14:16:18.120Z,29.10
2022-12-18T14:18:53.510Z,27.70
2022-12-18T14:21:08.041Z,34.20
2022-12-18T14:23:41.724Z,34.30
2022-12-18T14:25:54.662Z,42.70
2022-12-18T14:28:14.728Z,41.60
2022-12-18T14:30:33.829Z,32.70
2022-12-18T14:33:01.215Z,31.90
2022-12-18T14:35:14.767Z,33.10
2022-12-18T14:37:28.501Z,38.00
2022-12-18T14:39:40.087Z,43.20
2022-12-18T14:41:53.106Z,42.20
2022-12-18T14:44:09.802Z,38.30
2022-12-18T14:46:44.266Z,35.20
2022-12-18T14:48:58.434Z,37.20
2022-12-18T14:51:14.085Z,40.20
2022-12-18T14:53:57.638Z,47.10
2022-12-18T14:56:29.800Z,39.70
2022-12-18T14:58:50.493Z,37.00
2022-12-18T15:01:03.013Z,44.60
2022-12-18T15:03:22.086Z,47.80
2022-12-18T15:05:35.910Z,41.00
2022-12-18T15:07:49.340Z,37.10
2022-12-18T15:10:12.986Z,34.30
2022-12-18T15:12:35.405Z,26.80
2022-12-18T15:14:48.239Z,33.30
2022-12-18T15:17:30.977Z,28.80
2022-12-18T15:20:04.657Z,30.40
2022-12-18T15:22:21.542Z,27.70
2022-12-18T15:24:34.355Z,26.70
2022-12-18T15:26:46.452Z,33.50
2022-12-18T15:29:01.344Z,28.90
2022-12-18T15:31:13.479Z,30.80
2022-12-18T15:33:30.887Z,32.00
2022-12-18T15:35:46.841Z,28.20
2022-12-18T15:37:59.538Z,31.20
2022-12-18T15:40:20.336Z,26.60
2022-12-18T15:42:50.968Z,29.20
2022-12-18T15:45:02.859Z,32.70
2022-12-18T15:47:14.837Z,29.90
2022-12-18T15:49:27.052Z,35.30
2022-12-18T15:51:39.971Z,34.90
2022-12-18T15:53:55.689Z,37.50
2022-12-18T15:56:33.586Z,34.80
2022-12-18T15:58:46.066Z,31.60
2022-12-18T16:01:02.953Z,32.70
2022-12-18T16:03:17.455Z,38.10
2022-12-18T16:05:33.365Z,36.00
2022-12-18T16:07:52.131Z,36.20
2022-12-18T16:10:10.032Z,35.40
2022-12-18T16:12:26.802Z,33.60
2022-12-18T16:14:38.283Z,36.10
2022-12-18T16:16:56.525Z,34.50
2022-12-18T16:19:08.828Z,33.70
2022-12-18T16:21:20.774Z,36.00
2022-12-18T16:23:33.876Z,35.80
2022-12-18T16:25:49.412Z,39.30
2022-12-18T16:28:02.336Z,38.70
2022-12-18T16:30:21.625Z,41.90
2022-12-18T16:32:33.698Z,42.40
2022-12-18T16:34:46.926Z,39.40
2022-12-18T16:37:06.625Z,39.60
2022-12-18T16:39:26.376Z,43.10
2022-12-18T16:41:38.882Z,43.40
2022-12-18T16:43:55.105Z,45.40
2022-12-18T16:46:13.813Z,43.20
2022-12-18T16:48:26.947Z,46.00
2022-12-18T16:50:38.941Z,49.40
2022-12-18T16:53:04.865Z,37.80
2022-12-18T16:55:21.712Z,37.30
2022-12-18T16:57:34.760Z,35.80
2022-12-18T17:02:03.863Z,35.90
2022-12-18T17:04:53.688Z,33.70
2022-12-18T17:07:09.797Z,36.40
2022-12-18T17:09:25.969Z,31.90
2022-12-18T17:11:38.266Z,37.80
2022-12-18T17:13:49.954Z,35.70
2022-12-18T17:16:08.536Z,35.10
2022-12-18T17:18:24.521Z,37.00
2022-12-18T17:20:37.529Z,46.00
2022-12-18T17:22:52.783Z,43.80
2022-12-18T17:25:10.248Z,39.70
2022-12-18T17:27:34.902Z,42.70
2022-12-18T17:29:48.653Z,47.10
2022-12-18T17:32:01.143Z,44.00
2022-12-18T17:34:15.122Z,42.70
2022-12-18T17:36:31.198Z,45.50
2022-12-18T17:38:44.290Z,38.00
2022-12-18T17:41:04.475Z,35.00
2022-12-18T17:43:16.573Z,33.60
2022-12-18T17:45:29.080Z,32.50
2022-12-18T17:47:41.178Z,33.00
2022-12-18T17:53:43.558Z,28.70
2022-12-18T17:55:57.658Z,31.40
2022-12-18T17:58:09.406Z,36.40
2022-12-18T18:00:22.017Z,32.50
2022-12-18T18:02:33.782Z,33.10
2022-12-18T18:04:46.210Z,38.20
2022-12-18T18:06:57.838Z,31.20
2022-12-18T18:09:16.775Z,34.50
2022-12-18T18:11:49.591Z,34.70
2022-12-18T18:14:07.114Z,27.20
2022-12-18T18:16:19.194Z,33.40
2022-12-18T18:18:31.868Z,32.00
2022-12-18T18:20:43.965Z,36.10
2022-12-18T18:22:56.676Z,35.30
2022-12-18T18:25:09.593Z,35.20
2022-12-18T18:27:21.895Z,37.30
2022-12-18T18:29:34.402Z,39.20
2022-12-18T18:31:46.970Z,36.60
2022-12-18T18:33:59.005Z,37.40
2022-12-18T18:36:11.819Z,36.10
2022-12-18T18:38:23.711Z,35.80
2022-12-18T18:40:35.297Z,33.70
2022-12-18T18:42:48.212Z,38.10
2022-12-18T18:45:00.312Z,36.40
2022-12-18T18:47:13.020Z,38.80
2022-12-18T18:49:27.561Z,36.30
2022-12-18T18:51:41.003Z,34.00
2022-12-18T18:53:53.920Z,34.20
2022-12-18T18:56:45.542Z,34.20
2022-12-18T18:58:39.925Z,30.40
2022-12-18T19:00:57.510Z,29.90
2022-12-18T19:03:10.204Z,34.70
2022-12-18T19:05:23.028Z,35.40
2022-12-18T19:07:39.372Z,32.10
2022-12-18T19:09:56.210Z,34.60
2022-12-18T19:12:28.246Z,28.30
2022-12-18T19:14:42.430Z,29.50
2022-12-18T19:17:02.311Z,29.40
2022-12-18T19:19:23.753Z,30.80
2022-12-18T19:21:41.052Z,33.10
2022-12-18T19:23:56.482Z,30.30
2022-12-18T19:26:27.858Z,33.30
2022-12-18T19:32:24.686Z,34.30
2022-12-18T19:35:30.433Z,31.90
2022-12-18T19:37:52.312Z,27.90
2022-12-18T19:40:12.444Z,31.10
2022-12-18T19:44:45.361Z,29.40
2022-12-18T19:46:57.051Z,29.50
2022-12-18T19:49:17.455Z,33.90
2022-12-18T19:51:53.418Z,30.20
2022-12-18T19:56:46.725Z,27.60
2022-12-18T19:59:07.019Z,30.10
2022-12-18T20:01:32.329Z,31.80
2022-12-18T20:04:04.697Z,30.40
2022-12-18T20:06:33.845Z,31.50
2022-12-18T20:08:50.853Z,28.50
2022-12-18T20:11:03.463Z,30.70
2022-12-18T20:13:16.685Z,30.20
2022-12-18T20:15:29.546Z,28.90
2022-12-18T20:17:41.597Z,30.40
2022-12-18T20:19:53.385Z,33.60
2022-12-18T20:22:06.712Z,31.00
2022-12-18T20:24:18.707Z,31.10
2022-12-18T20:26:32.896Z,29.80
2022-12-18T20:28:53.761Z,32.80
2022-12-18T20:31:14.897Z,37.50
2022-12-18T20:33:37.140Z,34.50
2022-12-18T20:36:01.413Z,30.30
2022-12-18T20:38:24.779Z,29.10
2022-12-18T20:40:44.827Z,32.10
2022-12-18T20:42:56.616Z,34.90
2022-12-18T20:45:08.713Z,32.20
2022-12-18T20:47:48.972Z,34.00
2022-12-18T20:50:01.478Z,27.30
2022-12-18T20:52:25.487Z,31.30
2022-12-18T20:54:37.654Z,32.10
2022-12-18T20:56:50.587Z,34.60
2022-12-18T20:59:03.484Z,30.40
2022-12-18T21:01:19.025Z,34.30
2022-12-18T21:03:39.340Z,36.40
2022-12-18T21:06:03.037Z,33.20
2022-12-18T21:08:16.288Z,35.90
2022-12-18T21:10:47.106Z,34.80
2022-12-18T21:13:03.155Z,37.20
2022-12-18T21:15:24.032Z,39.20
2022-12-18T21:17:44.273Z,41.80
2022-12-18T21:20:01.140Z,39.90
2022-12-18T21:22:14.897Z,37.60
2022-12-18T21:24:29.062Z,38.10
2022-12-18T21:26:52.004Z,38.40
2022-12-18T21:29:08.620Z,42.20
2022-12-18T21:31:25.627Z,40.20
2022-12-18T21:33:39.915Z,43.00
2022-12-18T21:35:59.306Z,39.60
2022-12-18T21:38:11.869Z,43.20
2022-12-18T21:40:27.549Z,41.30
2022-12-18T21:43:01.881Z,42.70
2022-12-18T21:45:14.868Z,41.80
2022-12-18T21:47:27.691Z,43.60
2022-12-18T21:49:42.756Z,40.30
2022-12-18T21:52:02.450Z,42.60
2022-12-18T21:54:32.423Z,41.20
2022-12-18T21:57:56.260Z,37.90
2022-12-18T22:00:11.218Z,38.80
2022-12-18T22:02:32.068Z,41.40
2022-12-18T22:04:45.405Z,36.50
2022-12-18T22:07:29.828Z,39.40
2022-12-18T22:09:46.187Z,38.60
2022-12-18T22:12:02.554Z,44.40
2022-12-18T22:14:15.379Z,41.30
2022-12-18T22:16:30.127Z,41.70
2022-12-18T22:18:42.126Z,42.00
2022-12-18T22:21:06.610Z,41.50
2022-12-18T22:23:18.503Z,38.30
2022-12-18T22:25:30.598Z,44.80
2022-12-18T22:27:42.090Z,41.10
2022-12-18T22:30:20.745Z,39.50
2022-12-18T22:32:36.503Z,41.20
2022-12-18T22:34:49.175Z,40.70
2022-12-18T22:37:02.348Z,39.30
2022-12-18T22:39:21.345Z,40.30
2022-12-18T22:41:36.166Z,41.30
2022-12-18T22:43:48.673Z,46.70
2022-12-18T22:46:02.756Z,47.20
2022-12-18T22:48:15.192Z,42.60
2022-12-18T22:50:28.625Z,42.00
2022-12-18T22:52:41.129Z,44.10
2022-12-18T22:54:54.349Z,42.10
2022-12-18T22:57:06.517Z,47.50
2022-12-18T22:59:21.649Z,44.50
2022-12-18T23:01:33.801Z,45.80
2022-12-18T23:03:48.848Z,50.10
2022-12-18T23:06:08.853Z,43.60
2022-12-18T23:08:20.756Z,43.50
2022-12-18T23:10:33.162Z,43.90
2022-12-18T23:12:44.951Z,48.30
2022-12-18T23:14:56.743Z,44.60
2022-12-18T23:17:08.736Z,47.90
2022-12-18T23:19:21.244Z,42.30
2022-12-18T23:21:36.002Z,44.50
2022-12-18T23:23:49.123Z,49.30
2022-12-18T23:26:07.814Z,45.80
2022-12-18T23:30:32.582Z,43.40
2022-12-18T23:32:44.475Z,38.00
2022-12-18T23:34:56.265Z,44.30
2022-12-18T23:37:08.055Z,46.00
2022-12-18T23:39:29.092Z,44.50
2022-12-18T23:41:41.977Z,42.20
2022-12-18T23:43:54.586Z,42.00
2022-12-18T23:46:19.847Z,45.10
2022-12-18T23:48:31.583Z,44.70
2022-12-18T23:50:43.779Z,40.20
2022-12-18T23:52:57.209Z,40.90
2022-12-18T23:55:14.834Z,43.50
2022-12-18T23:57:26.931Z,39.30
2022-12-18T23:59:39.854Z,38.90
